createdAt,value
2019-01-27T00:12:25.303Z,73.5
2019-01-27T00:27:37.233Z,73.5
2019-01-27T00:42:46.311Z,73.4
2019-01-27T00:58:02.118Z,71.6
2019-01-27T01:13:14.890Z,71.2
2019-01-27T01:28:28.437Z,71.5
2019-01-27T01:43:30.016Z,71.7
2019-01-27T01:58:51.728Z,71.3
2019-01-27T02:14:04.124Z,71.8
2019-01-27T02:29:16.467Z,73.6
2019-01-27T02:44:29.941Z,72.8
2019-01-27T02:59:39.515Z,74.4
2019-01-27T03:14:53.243Z,75.9
2019-01-27T03:30:05.414Z,77.1
2019-01-27T03:45:17.490Z,76.9
2019-01-27T04:00:22.233Z,77.8
2019-01-27T04:15:41.443Z,79.2
2019-01-27T04:30:53.535Z,79.6
2019-01-27T04:46:05.885Z,78.5
2019-01-27T05:01:17.671Z,77.3
2019-01-27T05:16:29.675Z,77.7
2019-01-27T05:31:41.733Z,77.3
2019-01-27T05:46:53.836Z,78.2
2019-01-27T06:02:05.919Z,78.8
2019-01-27T06:17:13.895Z,77.9
2019-01-27T06:32:30.237Z,77.7
2019-01-27T06:47:42.448Z,76.3
2019-01-27T07:02:56.088Z,75.1
2019-01-27T07:18:07.197Z,74.8
2019-01-27T07:33:19.362Z,71.2
2019-01-27T07:48:31.957Z,70.2
2019-01-27T08:03:44.358Z,69.5
2019-01-27T08:18:56.978Z,67.7
2019-01-27T08:34:07.967Z,66.8
2019-01-27T08:49:22.470Z,66.8
2019-01-27T09:04:35.271Z,66.1
2019-01-27T09:19:48.164Z,64.5
2019-01-27T09:34:53.529Z,63.6
2019-01-27T09:50:14.594Z,64.3
2019-01-27T10:05:27.669Z,64.5
2019-01-27T10:20:40.987Z,62.9
2019-01-27T10:35:54.226Z,64.3
2019-01-27T10:51:08.154Z,54.1
2019-01-27T11:06:21.959Z,53.1
2019-01-27T11:21:35.792Z,53
2019-01-27T11:36:49.635Z,56.5
2019-01-27T11:51:54.879Z,54.9
2019-01-27T12:07:16.872Z,54.3
2019-01-27T12:22:29.887Z,57.1
2019-01-27T12:37:43.292Z,59.2
2019-01-27T12:52:56.722Z,65.8
2019-01-27T13:08:09.789Z,64.7
2019-01-27T13:23:23.439Z,63.7
2019-01-27T13:38:36.829Z,63.2
2019-01-27T13:53:50.353Z,53.5
2019-01-27T14:08:59.248Z,36.7
2019-01-27T14:24:23.749Z,37
2019-01-27T14:39:38.411Z,38.2
2019-01-27T14:54:53.238Z,40.7
2019-01-27T15:10:07.969Z,44.2
2019-01-27T15:25:15.875Z,47.8
2019-01-27T15:40:35.355Z,51.5
2019-01-27T15:55:48.748Z,53.4
2019-01-27T16:11:01.757Z,56
2019-01-27T16:26:14.767Z,55.5
2019-01-27T16:41:27.823Z,56.8
2019-01-27T16:56:40.733Z,60.8
2019-01-27T17:11:53.701Z,64
2019-01-27T17:27:06.341Z,62.9
2019-01-27T17:42:15.806Z,63.2
2019-01-27T17:57:31.482Z,66.4
2019-01-27T18:12:43.837Z,62.7
2019-01-27T18:27:56.127Z,66.2
2019-01-27T18:43:01.138Z,69.2
2019-01-27T18:58:20.536Z,70.7
2019-01-27T19:13:32.698Z,71.7
2019-01-27T19:44:57.762Z,71.9
2019-01-27T20:00:27.631Z,69.9
2019-01-27T20:15:39.715Z,71.5
2019-01-27T20:30:49.370Z,72.5
2019-01-27T20:46:03.902Z,73.3
2019-01-27T21:01:15.897Z,73.8
2019-01-27T21:16:27.930Z,75.2
2019-01-27T21:31:32.405Z,85.3
2019-01-27T21:46:52.205Z,78.9
2019-01-27T22:02:04.322Z,75.1
2019-01-27T22:17:16.519Z,72
2019-01-27T22:32:19.098Z,71
2019-01-27T22:47:40.981Z,70.8
2019-01-27T23:02:53.401Z,62.3
2019-01-27T23:18:05.895Z,64.7
2019-01-27T23:33:18.340Z,66.4
2019-01-27T23:48:30.868Z,68.2
